Nearby METAR Reports

 

KORH - Worcester, Massachusetts, USA
Distance from station: NW 4mi, 7km
Updated: Thu, 22-Feb-2024 9:54am EST
Overcast
Overcast
 Wind from SW
Wind: SW 12 mph , 19 km/h
Temperature: 30°F , -1°C
Wind Chill: 20°F , -7°C
Dew Point: 23°F , -5°C
Humidity: 75%
Barometer: 30.01 inHg , 1016.3 hPa
Clouds: Overcast
Visibility: 10 miles , 16 km
Cloud details: Overcast 1200 ft
2024/02/22 14:54 KORH 221454Z 22010KT 10SM OVC012 M01/M05 A3001 RMK AO2 SLP175 T10111050 56023
KBOS - Boston, Massachusetts, USA
Distance from station: ENE 42mi, 68km
Updated: Thu, 22-Feb-2024 9:54am EST
Few Clouds
Few Clouds
 Wind from SE
Wind: SE 9 mph , 15 km/h
Temperature: 34°F , 1°C
Wind Chill: 27°F , -3°C
Dew Point: 25°F , -4°C
Humidity: 70%
Barometer: 30.08 inHg , 1018.6 hPa
Clouds: Few Clouds
Visibility: 10 miles , 16 km
Cloud details: Few Clouds 2800 ft
Few Clouds 25000 ft
2024/02/22 14:54 KBOS 221454Z 14008KT 10SM FEW028 FEW250 01/M04 A3008 RMK AO2 SLP186 T00111039 58019
 
KCQX - Chatham, Massachusetts, USA
Distance from station: SE 102mi, 164km
Updated: Thu, 22-Feb-2024 9:52am EST
Overcast
Overcast
 Wind from ENE
Wind: ENE 3 mph , 6 km/h
Temperature: 37°F , 3°C
Dew Point: 25°F , -4°C
Humidity: 60%
Barometer: 30.08 inHg , 1018.6 hPa
Clouds: Overcast
Visibility: 10 miles , 16 km
Cloud details: Overcast 2400 ft
2024/02/22 14:52 KCQX 221452Z AUTO 06003KT 10SM OVC024 03/M04 A3008 RMK AO2 SLP188 T00281039 58019
KMVY - Marthas Vineyard, Massachusetts, USA
Distance from station: SE 84mi, 135km
Updated: Thu, 22-Feb-2024 9:53am EST
Few Clouds
Few Clouds
 Wind from calm
Wind: Calm
Temperature: 34°F , 1°C
Dew Point: 25°F , -4°C
Humidity: 70%
Barometer: 30.07 inHg , 1018.3 hPa
Clouds: Few Clouds
Visibility: 10 miles , 16 km
Cloud details: Few Clouds 2100 ft
2024/02/22 14:53 KMVY 221453Z 00000KT 10SM FEW021 01/M04 A3007 RMK AO2 SLP184 T00111039 58024
 
KPVC - Provincetown, Massachusetts, USA
Distance from station: NNW 85mi, 136km
Updated: Thu, 22-Feb-2024 9:56am EST
Overcast
Overcast
 Wind from S
Wind: S 3 mph , 6 km/h
Temperature: 36°F , 2°C
Dew Point: 25°F , -4°C
Humidity: 65%
Barometer: 30.09 inHg , 1019 hPa
Clouds: Overcast
Visibility: 10 miles , 16 km
Cloud details: Overcast 2300 ft
2024/02/22 14:56 KPVC 221456Z AUTO 17003KT 10SM OVC023 02/M04 A3009 RMK AO2 SLP188 T00221039 58020 FZRANO
KAQW - Savoy, Massachusetts, USA
Distance from station: NNW 66mi, 106km
Updated: Thu, 22-Feb-2024 9:52am EST
Few Clouds
Few Clouds
 Wind from calm
Wind: Calm
Temperature: 36°F , 2°C
Dew Point: 25°F , -4°C
Humidity: 65%
Barometer: 29.98 inHg , 1015.2 hPa
Clouds: Few Clouds
Visibility: 10 miles , 16 km
Cloud details: Few Clouds 2200 ft
2024/02/22 14:52 KAQW 221452Z AUTO 00000KT 10SM FEW022 02/M04 A2998 RMK AO2 SLP160 T00221039 58026
 
KIZG - Fryeburg, Maine, USA
Distance from station: NNE 133mi, 214km
Updated: Thu, 22-Feb-2024 9:54am EST
Overcast
Overcast
 Wind from varies
Wind: varies 6 mph , 9 km/h
Temperature: 28°F , -2°C
Wind Chill: 21°F , -6°C
Dew Point: 23°F , -5°C
Humidity: 80%
Barometer: 30.02 inHg , 1016.6 hPa
Clouds: Overcast
Visibility: 10 miles , 16 km
Cloud details: Overcast 1600 ft
2024/02/22 14:54 KIZG 221454Z AUTO VRB05KT 10SM OVC016 M02/M05 A3002 RMK AO2 SLP174 T10171050 58018
KMWN - Mt Washington, New Hampshire, USA
Distance from station: NNE 146mi, 234km
Updated: Thu, 22-Feb-2024 9:59am EST

 Wind from W
Wind: W 28 mph , 44 km/h
Visibility: 60 miles , 96 km
2024/02/22 14:59 KMWN 221459Z 27024KT 60SM SCT/// SCT030 SCT050 SCT100 BKN180 M04/M09 RMK ACSL DSNT NE-SE SW-NW TPS LWR SCT030
 
KBML - Berlin, New Hampshire, USA
Distance from station: NNE 160mi, 257km
Updated: Thu, 22-Feb-2024 9:52am EST
Mostly cloudy
Mostly cloudy
 Wind from calm
Wind: Calm
Temperature: 23°F , -5°C
Dew Point: 16°F , -9°C
Humidity: 74%
Barometer: 29.93 inHg , 1013.5 hPa
Clouds: Mostly cloudy
Visibility: 10 miles , 16 km
Cloud details: Mostly cloudy 8500 ft
2024/02/22 14:52 KBML 221452Z AUTO 00000KT 10SM BKN085 M05/M09 A2993 RMK AO2 SLP156 T10501089 58027